Williston, ND

9:16 AM CDT on August 25, 2016 (GMT -0500)
Valhalla | | Change Station

Elev 2040 ft 48.33 °N, 103.62 °W | Updated 60 seconds ago

Clear
Clear
59.5 °F
Feels Like 59.5 °F
N
7.6
Wind Variable Wind from WNW
Gusts 9.6 mph

Today
High -- | Low -- °F
--% Chance of Precip.
Yesterday
High -- | Low -- °F
Precip. -- in
Pressure 30.21 in
Visibility 10.0 miles
Clouds Clear
Dew Point 48 °F
Humidity 65%
Rainfall 0.00 in
Snow Depth Not available.
7:03 AM 8:48 PM
Last Quarter, 45% visible
METAR KISN 251352Z AUTO 25009KT 10SM CLR 14/08 A3019 RMK AO2 SLP228 T01390083
Pressure 30.21 in
Visibility 10.0 miles
Clouds Clear
Dew Point 48 °F
Humidity 65%
Rainfall 0.00 in
Snow Depth Not available.
7:03 AM 8:48 PM
Last Quarter, 45% visible
METAR KISN 251352Z AUTO 25009KT 10SM CLR 14/08 A3019 RMK AO2 SLP228 T01390083

10-Day Weather Forecast

Almanac

Astronomy

Aug. 25, 2016 Rise Set
Actual Time
Civil Twilight
Nautical Twilight
Astronomical Twilight
Moon
Length of Visible Light
Length of Day
Tomorrow will be .
, % of the Moon is Illuminated

Today's Extremes

State Highs State Lows

Community

WunderPhotos

Upload Photos

1,934,850 photos uploaded!

WunderBlog® & News

Nearby

Air Quality

  Air Quality AQ Index Pollutant
Not available.

Snow Depth

Station Depth Elevation

Earthquake Activity

City Distance Mag. Time & Date
Minimum magnitude displayed is 2.5.

Coastal Water Temperatures

Place Temperature

Stations

Nearby Weather Stations

Station Location Temp. Windchill Dew Point Humidity Wind Precip. Elev Updated Type
                   

Watches & Warnings

There are currently no watches in effect.